Time;durP1;ratioP1;P1;durP2;ratioP2;P2;SDS_P1;SDS_P2;PMS_P1;PMS_P2;Temp;Humidity;BMP_temperature;BMP_pressure;BME280_temperature;BME280_humidity;BME280_pressure;Samples;Min_cycle;Max_cycle;Signal;HPM_P1;HPM_P2
2022/09/21 00:55:54;;;;;;;5.22;2.13;;;14.30;99.90;;;;;;5072821;28;20393;-87
2022/09/21 00:58:30;;;;;;;5.65;2.10;;;14.40;99.90;;;;;;5072653;28;20033;-87
2022/09/21 01:00:58;;;;;;;3.33;1.90;;;14.40;99.90;;;;;;5071208;28;20029;-87
2022/09/21 01:03:24;;;;;;;4.00;2.00;;;14.50;99.90;;;;;;5071225;28;20016;-87
2022/09/21 01:05:50;;;;;;;3.33;2.00;;;14.40;99.90;;;;;;5071552;28;20044;-87
2022/09/21 01:08:19;;;;;;;4.03;1.85;;;14.40;99.90;;;;;;5071368;28;20028;-86
2022/09/21 01:11:10;;;;;;;4.78;2.20;;;14.40;99.90;;;;;;5071374;28;20085;-86
2022/09/21 01:14:14;;;;;;;5.72;2.15;;;14.30;99.90;;;;;;5072595;28;20021;-87
2022/09/21 01:17:11;;;;;;;3.97;2.10;;;14.30;99.90;;;;;;5071179;28;20031;-87
2022/09/21 01:19:55;;;;;;;3.28;1.90;;;14.40;99.90;;;;;;5072663;28;20059;-87
2022/09/21 01:22:31;;;;;;;8.02;2.45;;;14.30;99.90;;;;;;5073102;28;20074;-87
2022/09/21 01:25:00;;;;;;;4.07;1.75;;;14.30;99.90;;;;;;5072003;28;20037;-87
2022/09/21 01:27:40;;;;;;;3.75;2.17;;;14.30;99.90;;;;;;5029386;28;20051;-86
2022/09/21 01:30:18;;;;;;;6.28;2.72;;;14.30;99.90;;;;;;5102325;22;20112;-78
2022/09/21 01:33:02;;;;;;;3.30;2.15;;;14.30;99.90;;;;;;5088300;28;20108;-77
2022/09/21 01:35:44;;;;;;;3.60;2.50;;;14.30;99.90;;;;;;5087539;28;20032;-78
2022/09/21 01:38:16;;;;;;;6.93;2.15;;;14.30;99.90;;;;;;5083797;28;20099;-77
2022/09/21 01:40:49;;;;;;;3.63;1.83;;;14.30;99.90;;;;;;5075319;28;20039;-78
2022/09/21 01:43:24;;;;;;;2.80;2.08;;;14.20;99.90;;;;;;5062048;28;20037;-78
2022/09/21 01:45:53;;;;;;;3.47;2.00;;;14.10;99.90;;;;;;5070367;28;20771;-77
2022/09/21 01:48:21;;;;;;;3.38;2.40;;;14.10;99.90;;;;;;5062456;28;20052;-78
2022/09/21 01:50:52;;;;;;;2.22;2.03;;;14.20;99.90;;;;;;5061359;28;20024;-77
2022/09/21 01:53:21;;;;;;;2.63;2.10;;;14.20;99.90;;;;;;5061074;28;20079;-78
2022/09/21 01:55:52;;;;;;;5.15;2.05;;;14.30;99.90;;;;;;5047486;28;20064;-78
2022/09/21 01:58:27;;;;;;;7.85;2.25;;;14.20;99.90;;;;;;5075624;28;20369;-78
2022/09/21 02:00:55;;;;;;;3.92;1.77;;;14.20;99.90;;;;;;5085598;28;20020;-78
2022/09/21 02:03:31;;;;;;;3.78;1.90;;;14.20;99.90;;;;;;5053527;28;20024;-78
2022/09/21 02:05:58;;;;;;;3.33;1.95;;;14.20;99.90;;;;;;5065631;28;20029;-78
2022/09/21 02:08:27;;;;;;;2.10;1.60;;;14.20;99.90;;;;;;5059728;28;20293;-77
2022/09/21 02:10:53;;;;;;;2.60;2.03;;;14.20;99.90;;;;;;5065265;28;20091;-77
2022/09/21 02:13:24;;;;;;;4.78;2.22;;;14.20;99.90;;;;;;5066066;28;20027;-78
2022/09/21 02:16:01;;;;;;;2.22;1.65;;;14.20;99.90;;;;;;5066370;28;20034;-77
2022/09/21 02:18:41;;;;;;;4.95;2.10;;;14.20;99.90;;;;;;5066703;28;20025;-77
2022/09/21 02:21:24;;;;;;;4.43;2.08;;;14.20;99.90;;;;;;5049957;28;20515;-77
2022/09/21 02:24:11;;;;;;;3.35;2.10;;;14.10;99.90;;;;;;5074515;28;20142;-78
2022/09/21 02:27:05;;;;;;;3.22;2.40;;;14.10;99.90;;;;;;5060335;28;20054;-77
2022/09/21 02:29:46;;;;;;;2.20;1.63;;;14.10;99.90;;;;;;5073092;28;20043;-77
2022/09/21 02:32:19;;;;;;;3.10;1.70;;;14.00;99.90;;;;;;5056890;28;20033;-77
2022/09/21 02:34:54;;;;;;;2.55;1.92;;;14.10;99.90;;;;;;5083380;28;20021;-78
2022/09/21 02:37:58;;;;;;;3.17;2.15;;;14.00;99.90;;;;;;5059869;28;20176;-78
2022/09/21 02:40:33;;;;;;;2.13;1.92;;;14.10;99.90;;;;;;4980186;28;20031;-77
2022/09/21 02:43:07;;;;;;;2.70;1.50;;;14.10;99.90;;;;;;4963117;28;20026;-78
2022/09/21 02:45:36;;;;;;;;;;;14.10;99.90;;;;;;5019271;28;20058;-78
2022/09/21 02:48:09;;;;;;;2.80;2.33;;;14.00;99.90;;;;;;5064487;28;20059;-78
2022/09/21 02:50:40;;;;;;;;;;;14.10;99.90;;;;;;5054585;28;20024;-78
2022/09/21 02:53:08;;;;;;;2.47;1.80;;;14.10;99.90;;;;;;5048792;28;19915;-78
2022/09/21 02:55:34;;;;;;;3.38;2.00;;;14.20;99.90;;;;;;5055348;28;20039;-78
2022/09/21 02:58:04;;;;;;;2.70;1.95;;;14.20;99.90;;;;;;5064607;28;20032;-78
2022/09/21 03:00:30;;;;;;;6.35;1.73;;;14.20;99.90;;;;;;5085773;28;20087;-78
2022/09/21 03:02:56;;;;;;;3.05;1.67;;;14.10;99.90;;;;;;5058525;28;20032;-78
2022/09/21 03:05:22;;;;;;;2.50;1.80;;;14.10;99.90;;;;;;5073681;28;20364;-78
2022/09/21 03:07:47;;;;;;;3.00;1.90;;;14.10;99.90;;;;;;5052757;28;20055;-78
2022/09/21 03:10:13;;;;;;;2.58;1.70;;;14.10;99.90;;;;;;5057323;28;20053;-78
2022/09/21 03:12:39;;;;;;;3.03;1.35;;;14.00;99.90;;;;;;5056888;28;20046;-78
2022/09/21 03:15:05;;;;;;;3.60;1.80;;;14.00;99.90;;;;;;5056854;28;20021;-78
2022/09/21 03:17:31;;;;;;;2.55;1.70;;;14.10;99.90;;;;;;5051068;28;20021;-78
2022/09/21 03:19:56;;;;;;;2.42;1.88;;;14.10;99.90;;;;;;5068342;28;20021;-77
2022/09/21 03:22:25;;;;;;;2.15;1.50;;;14.00;99.90;;;;;;5069384;28;20082;-78
2022/09/21 03:24:50;;;;;;;2.22;1.52;;;14.00;99.90;;;;;;5058845;28;20405;-78
2022/09/21 03:27:19;;;;;;;4.38;1.67;;;14.10;99.90;;;;;;5022406;28;20516;-78
2022/09/21 03:29:46;;;;;;;2.20;1.50;;;14.00;99.90;;;;;;5061308;28;20093;-77
2022/09/21 03:32:13;;;;;;;1.90;1.40;;;14.00;99.90;;;;;;5062940;28;20024;-77
2022/09/21 03:34:39;;;;;;;2.42;1.60;;;14.00;99.90;;;;;;5072682;28;20025;-78
2022/09/21 03:37:07;;;;;;;1.27;1.15;;;14.00;99.90;;;;;;5072363;28;20107;-77
2022/09/21 03:39:33;;;;;;;3.65;1.50;;;13.90;99.90;;;;;;5075277;28;20020;-77
2022/09/21 03:42:00;;;;;;;1.58;1.48;;;14.00;99.90;;;;;;5055880;28;20020;-78
2022/09/21 03:44:26;;;;;;;1.42;1.33;;;13.90;99.90;;;;;;5077146;28;20032;-78
2022/09/21 03:46:52;;;;;;;1.48;1.23;;;13.90;99.90;;;;;;5051818;28;20027;-78
2022/09/21 03:49:19;;;;;;;1.90;1.13;;;13.90;99.90;;;;;;5075545;28;20064;-78
2022/09/21 03:51:44;;;;;;;1.67;1.20;;;13.90;99.90;;;;;;5065148;28;20393;-78
2022/09/21 03:54:11;;;;;;;1.75;1.40;;;14.00;99.90;;;;;;5058765;28;20114;-77
2022/09/21 03:56:36;;;;;;;1.33;1.23;;;14.00;99.90;;;;;;5055704;28;20140;-77
2022/09/21 03:59:03;;;;;;;1.52;1.30;;;13.90;99.90;;;;;;5081330;28;20028;-77
2022/09/21 04:01:29;;;;;;;1.98;1.50;;;13.90;99.90;;;;;;5065623;28;20410;-77
2022/09/21 04:03:54;;;;;;;4.10;1.30;;;13.90;99.90;;;;;;5047608;28;20029;-77
2022/09/21 04:06:20;;;;;;;1.92;1.50;;;13.90;99.90;;;;;;5066108;28;20039;-78
2022/09/21 04:08:46;;;;;;;1.60;1.15;;;13.90;99.90;;;;;;5064938;28;20028;-77
2022/09/21 04:11:17;;;;;;;3.20;1.48;;;13.90;99.90;;;;;;5077805;28;20081;-78
2022/09/21 04:13:44;;;;;;;1.67;1.50;;;13.90;99.90;;;;;;5076620;28;20016;-77
2022/09/21 04:16:10;;;;;;;1.90;1.38;;;13.90;99.90;;;;;;5088084;28;20035;-78
2022/09/21 04:18:37;;;;;;;1.20;1.08;;;13.90;99.90;;;;;;5054944;28;20039;-77
2022/09/21 04:21:04;;;;;;;2.08;1.38;;;13.90;99.90;;;;;;5059657;28;20024;-78
2022/09/21 04:23:31;;;;;;;1.33;1.15;;;13.90;99.90;;;;;;5073635;28;20578;-77
2022/09/21 04:25:57;;;;;;;1.27;1.17;;;13.90;99.90;;;;;;5048212;28;20411;-78
2022/09/21 04:28:23;;;;;;;1.17;1.08;;;13.80;99.90;;;;;;5041178;28;20048;-77
2022/09/21 04:30:53;;;;;;;1.63;1.50;;;13.80;99.90;;;;;;5079524;28;20036;-77
2022/09/21 04:33:19;;;;;;;3.08;1.65;;;13.80;99.90;;;;;;5065638;28;20101;-77
2022/09/21 04:35:44;;;;;;;2.42;1.33;;;13.80;99.90;;;;;;5054188;28;20055;-78
2022/09/21 04:38:12;;;;;;;1.08;0.95;;;13.80;99.90;;;;;;5077581;28;20029;-77
2022/09/21 04:40:38;;;;;;;1.13;0.93;;;13.80;99.90;;;;;;5058419;28;20029;-77
2022/09/21 04:43:04;;;;;;;1.75;1.00;;;13.80;99.90;;;;;;5090021;28;20028;-77
2022/09/21 04:45:31;;;;;;;2.63;1.40;;;13.80;99.90;;;;;;5059434;28;20021;-77
2022/09/21 04:47:57;;;;;;;1.38;1.27;;;13.80;99.90;;;;;;5065216;28;20020;-78
2022/09/21 04:50:22;;;;;;;1.63;1.45;;;13.80;99.90;;;;;;5064341;28;20438;-78
2022/09/21 04:52:48;;;;;;;1.75;1.40;;;13.80;99.90;;;;;;5059804;28;20055;-78
2022/09/21 04:55:14;;;;;;;1.65;1.40;;;13.70;99.90;;;;;;5073098;28;20024;-78
2022/09/21 04:57:40;;;;;;;1.77;1.40;;;13.70;99.90;;;;;;5063730;28;20017;-77
2022/09/21 05:00:06;;;;;;;2.92;1.65;;;13.70;99.90;;;;;;5058500;28;20043;-78
2022/09/21 05:02:32;;;;;;;3.60;2.00;;;13.60;99.90;;;;;;5053762;28;20036;-77
2022/09/21 05:04:58;;;;;;;3.58;2.38;;;13.70;99.90;;;;;;5073628;28;20024;-78
2022/09/21 05:07:23;;;;;;;3.15;2.15;;;13.70;99.90;;;;;;5063979;28;20608;-78
2022/09/21 05:10:04;;;;;;;4.45;2.72;;;13.70;99.90;;;;;;5055095;28;20020;-77
2022/09/21 05:12:31;;;;;;;6.18;2.75;;;13.70;99.90;;;;;;5067259;28;20538;-77
2022/09/21 05:14:57;;;;;;;4.85;2.35;;;13.70;99.90;;;;;;5074625;28;20038;-77
2022/09/21 05:17:23;;;;;;;5.32;2.60;;;13.60;99.90;;;;;;5057163;28;20020;-77
2022/09/21 05:19:49;;;;;;;3.45;2.30;;;13.60;99.90;;;;;;5047955;28;20440;-77
2022/09/21 05:22:15;;;;;;;4.10;2.33;;;13.70;99.90;;;;;;5063597;28;20100;-78
2022/09/21 05:24:41;;;;;;;3.83;2.00;;;13.70;99.90;;;;;;5049318;28;20053;-77
2022/09/21 05:27:07;;;;;;;4.40;2.20;;;13.70;99.90;;;;;;5066913;28;20063;-77
2022/09/21 05:29:33;;;;;;;6.03;2.35;;;13.60;99.90;;;;;;5057472;28;20085;-77
2022/09/21 05:32:11;;;;;;;6.45;2.42;;;13.60;99.90;;;;;;5077112;28;20024;-78
2022/09/21 05:35:01;;;;;;;4.40;2.13;;;13.60;99.90;;;;;;5056471;28;20024;-77
2022/09/21 05:37:43;;;;;;;5.45;2.60;;;13.60;99.90;;;;;;5057155;28;20020;-78
2022/09/21 05:40:11;;;;;;;3.80;2.50;;;13.60;99.90;;;;;;5049850;28;20092;-78
2022/09/21 05:42:37;;;;;;;6.22;2.60;;;13.70;99.90;;;;;;5066266;28;20029;-77
2022/09/21 05:45:03;;;;;;;4.88;2.92;;;13.60;99.90;;;;;;5051788;28;20063;-77
2022/09/21 05:47:49;;;;;;;4.68;3.45;;;13.60;99.90;;;;;;5056635;28;20073;-77
2022/09/21 05:50:37;;;;;;;8.77;4.50;;;13.60;99.90;;;;;;5056212;28;20128;-77
2022/09/21 05:53:35;;;;;;;8.93;4.20;;;13.60;99.90;;;;;;5080015;28;20034;-77
2022/09/21 05:56:24;;;;;;;7.00;3.78;;;13.60;99.90;;;;;;5049367;28;20081;-77
2022/09/21 05:59:26;;;;;;;6.47;3.40;;;13.50;99.90;;;;;;5059435;28;20020;-77
2022/09/21 06:01:59;;;;;;;6.07;2.80;;;13.50;99.90;;;;;;5072170;28;20034;-77
2022/09/21 06:04:25;;;;;;;4.13;2.35;;;13.60;99.90;;;;;;5078070;28;20040;-77
2022/09/21 06:06:51;;;;;;;4.55;2.90;;;13.60;99.90;;;;;;5086894;28;20078;-77
2022/09/21 06:09:19;;;;;;;6.30;3.13;;;13.60;99.90;;;;;;5058355;28;20028;-78
2022/09/21 06:11:45;;;;;;;5.35;3.08;;;13.60;99.90;;;;;;5061818;28;20366;-77
2022/09/21 06:14:11;;;;;;;4.90;2.33;;;13.60;99.90;;;;;;5070733;28;20492;-78
2022/09/21 06:16:38;;;;;;;3.05;2.28;;;13.60;99.90;;;;;;5088612;28;20103;-77
2022/09/21 06:19:04;;;;;;;4.07;2.60;;;13.50;99.90;;;;;;5059322;28;20033;-77
2022/09/21 06:21:30;;;;;;;4.15;2.47;;;13.50;99.90;;;;;;5051018;28;20054;-77
2022/09/21 06:23:56;;;;;;;5.00;2.33;;;13.50;99.90;;;;;;5048506;28;20085;-77
2022/09/21 06:26:22;;;;;;;4.28;2.20;;;13.50;99.90;;;;;;5061074;28;20040;-77
2022/09/21 06:28:47;;;;;;;4.32;2.17;;;13.50;99.90;;;;;;5049522;28;20043;-78
2022/09/21 06:31:13;;;;;;;2.35;1.88;;;13.50;99.90;;;;;;5061136;28;20082;-77
2022/09/21 06:33:39;;;;;;;3.38;2.33;;;13.40;99.90;;;;;;5060881;28;20017;-77
2022/09/21 06:36:05;;;;;;;4.68;2.42;;;13.50;99.90;;;;;;5058317;28;20017;-77
2022/09/21 06:38:31;;;;;;;6.82;2.78;;;13.50;99.90;;;;;;5071240;28;20138;-77
2022/09/21 06:41:01;;;;;;;4.18;2.92;;;13.50;99.90;;;;;;5065899;28;20024;-77
2022/09/21 06:43:27;;;;;;;4.90;3.03;;;13.50;99.90;;;;;;5056381;28;20032;-78
2022/09/21 06:45:55;;;;;;;3.58;2.63;;;13.50;99.90;;;;;;5055438;28;20024;-78
2022/09/21 06:48:21;;;;;;;3.92;2.35;;;13.50;99.90;;;;;;5069157;28;20032;-78
2022/09/21 06:50:47;;;;;;;5.75;2.72;;;13.50;99.90;;;;;;5055690;28;20038;-77
2022/09/21 06:53:13;;;;;;;5.32;3.08;;;13.50;99.90;;;;;;5052617;28;20024;-78
2022/09/21 06:55:39;;;;;;;3.65;2.63;;;13.50;99.90;;;;;;5051796;28;20519;-77
2022/09/21 06:58:05;;;;;;;3.03;2.08;;;13.50;99.90;;;;;;5048278;28;20024;-78
2022/09/21 07:00:32;;;;;;;3.70;2.30;;;13.50;99.90;;;;;;5068312;28;20444;-77
2022/09/21 07:02:58;;;;;;;3.53;2.17;;;13.50;99.90;;;;;;5051602;28;20013;-77
2022/09/21 07:05:24;;;;;;;3.65;2.42;;;13.40;99.90;;;;;;5051529;28;20025;-77
2022/09/21 07:07:50;;;;;;;2.95;2.08;;;13.50;99.90;;;;;;5054201;28;20112;-77
2022/09/21 07:10:16;;;;;;;2.92;2.10;;;13.40;99.90;;;;;;5053475;28;20024;-77
2022/09/21 07:12:42;;;;;;;4.30;2.65;;;13.40;99.90;;;;;;5047690;28;20040;-77
2022/09/21 07:15:09;;;;;;;4.35;2.50;;;13.40;99.90;;;;;;5051326;28;20028;-77
2022/09/21 07:17:37;;;;;;;5.13;2.70;;;13.40;99.90;;;;;;5055003;28;20025;-77
2022/09/21 07:20:05;;;;;;;5.03;2.47;;;13.40;99.90;;;;;;5069480;28;20021;-77
2022/09/21 07:22:31;;;;;;;5.22;2.67;;;13.40;99.90;;;;;;5056001;28;20103;-77
2022/09/21 07:24:57;;;;;;;4.97;2.70;;;13.50;99.90;;;;;;5047674;28;20503;-77
2022/09/21 07:27:27;;;;;;;4.40;2.10;;;13.50;99.90;;;;;;5051517;28;20048;-77
2022/09/21 07:29:53;;;;;;;3.47;2.50;;;13.40;99.90;;;;;;5053140;28;20488;-77
2022/09/21 07:32:19;;;;;;;6.50;2.80;;;13.40;99.90;;;;;;5077069;28;20043;-77
2022/09/21 07:34:45;;;;;;;5.10;2.08;;;13.40;99.90;;;;;;5046458;28;20036;-78
2022/09/21 07:37:11;;;;;;;3.33;2.65;;;13.40;99.90;;;;;;5053073;28;20025;-77
2022/09/21 07:39:37;;;;;;;3.90;2.30;;;13.50;99.90;;;;;;5058969;28;20068;-77
2022/09/21 07:42:04;;;;;;;2.08;1.88;;;13.40;99.90;;;;;;5053933;28;20024;-77
2022/09/21 07:44:30;;;;;;;2.67;1.80;;;13.40;99.90;;;;;;5051981;28;20032;-77
2022/09/21 07:46:56;;;;;;;4.25;2.10;;;13.40;99.90;;;;;;5054222;28;20034;-77
2022/09/21 07:49:21;;;;;;;2.90;2.20;;;13.30;99.90;;;;;;5077618;28;20074;-77
2022/09/21 07:51:47;;;;;;;4.75;2.75;;;13.30;99.90;;;;;;5065192;28;20029;-78
2022/09/21 07:54:14;;;;;;;3.83;2.38;;;13.30;99.90;;;;;;5056226;23;20036;-85
2022/09/21 07:56:41;;;;;;;2.90;2.53;;;13.30;99.90;;;;;;5053610;28;20397;-87
2022/09/21 07:59:06;;;;;;;2.55;2.33;;;13.30;99.90;;;;;;5052484;28;20031;-87
2022/09/21 08:01:40;;;;;;;5.70;2.22;;;13.30;99.90;;;;;;5052126;28;20453;-87
2022/09/21 08:04:08;;;;;;;3.47;2.70;;;13.30;99.90;;;;;;5059917;28;20028;-87
2022/09/21 08:06:35;;;;;;;5.20;2.42;;;13.30;99.90;;;;;;5087527;28;20070;-87
2022/09/21 08:09:04;;;;;;;3.97;2.50;;;13.30;99.90;;;;;;5069585;28;20032;-87
2022/09/21 08:11:32;;;;;;;3.83;2.42;;;13.30;99.90;;;;;;5081706;28;20119;-89
2022/09/21 08:13:59;;;;;;;4.38;2.72;;;13.30;99.90;;;;;;5066864;28;20485;-87
2022/09/21 08:16:26;;;;;;;4.88;2.83;;;13.30;99.90;;;;;;5091434;28;20036;-87
2022/09/21 08:18:52;;;;;;;3.85;2.35;;;13.30;99.90;;;;;;5083863;28;20508;-87
2022/09/21 08:21:19;;;;;;;3.83;2.90;;;13.30;99.90;;;;;;5091416;28;20119;-88
2022/09/21 08:23:47;;;;;;;4.13;2.47;;;13.30;99.90;;;;;;5074050;28;20031;-87
2022/09/21 08:26:18;;;;;;;4.60;2.83;;;13.40;99.90;;;;;;5086348;28;20024;-87
2022/09/21 08:28:48;;;;;;;4.35;2.83;;;13.30;99.90;;;;;;5096182;28;20032;-88
2022/09/21 08:31:16;;;;;;;4.47;2.90;;;13.30;99.90;;;;;;5067942;28;20088;-87
2022/09/21 08:33:42;;;;;;;5.32;3.20;;;13.30;99.90;;;;;;5076502;28;20396;-87
2022/09/21 08:36:11;;;;;;;4.00;3.03;;;13.30;99.90;;;;;;5088274;28;20028;-87
2022/09/21 08:38:38;;;;;;;3.75;2.97;;;13.30;99.90;;;;;;5107767;28;20039;-87
2022/09/21 08:41:40;;;;;;;4.45;3.20;;;13.30;99.90;;;;;;5091865;28;20034;-87
2022/09/21 08:44:22;;;;;;;5.47;3.28;;;13.30;99.90;;;;;;5093982;28;20041;-88
2022/09/21 08:47:02;;;;;;;8.93;2.92;;;13.30;99.90;;;;;;5093136;28;20093;-88
2022/09/21 08:49:30;;;;;;;5.78;2.88;;;13.30;99.90;;;;;;5086613;28;20036;-88
2022/09/21 08:52:02;;;;;;;2.85;2.55;;;13.30;99.90;;;;;;5090431;28;20031;-88
2022/09/21 08:54:50;;;;;;;5.32;3.53;;;13.30;99.90;;;;;;5086878;28;20060;-87
2022/09/21 08:57:17;;;;;;;3.47;2.70;;;13.30;99.90;;;;;;5072369;28;20028;-87
2022/09/21 08:59:45;;;;;;;7.10;3.25;;;13.30;99.90;;;;;;5078689;28;20070;-88
2022/09/21 09:02:32;;;;;;;6.47;3.08;;;13.30;99.90;;;;;;5070826;28;20049;-88
2022/09/21 09:05:06;;;;;;;6.53;2.95;;;13.30;99.90;;;;;;5086387;28;20020;-87
2022/09/21 09:08:03;;;;;;;5.10;2.70;;;13.30;99.90;;;;;;5075378;28;20025;-88
2022/09/21 09:10:48;;;;;;;4.63;2.92;;;13.30;99.90;;;;;;5076326;28;20397;-87
2022/09/21 09:13:17;;;;;;;3.50;2.97;;;13.30;99.90;;;;;;5077099;28;20037;-87
2022/09/21 09:15:42;;;;;;;5.32;3.00;;;13.30;99.90;;;;;;5089213;28;20416;-88
2022/09/21 09:18:17;;;;;;;4.43;2.80;;;13.30;99.90;;;;;;5077349;28;20024;-88
2022/09/21 09:20:48;;;;;;;5.25;3.40;;;13.30;99.90;;;;;;5072064;28;20454;-87
2022/09/21 09:23:22;;;;;;;4.53;2.63;;;13.30;99.90;;;;;;5073547;28;20419;-87
2022/09/21 09:25:51;;;;;;;4.88;3.50;;;13.40;99.90;;;;;;5087915;28;20084;-87
2022/09/21 09:28:26;;;;;;;4.95;3.30;;;13.30;99.90;;;;;;5077752;28;20036;-87
2022/09/21 09:31:10;;;;;;;6.82;2.63;;;13.30;99.90;;;;;;5065170;28;20044;-88
2022/09/21 09:33:44;;;;;;;4.47;2.75;;;13.30;99.90;;;;;;5075889;28;20020;-87
2022/09/21 09:36:11;;;;;;;5.13;2.60;;;13.40;99.90;;;;;;5063668;28;20039;-88
2022/09/21 09:38:46;;;;;;;3.95;2.80;;;13.40;99.90;;;;;;5072253;28;20028;-87
2022/09/21 09:41:32;;;;;;;6.53;3.03;;;13.30;99.90;;;;;;5087166;28;20054;-86
2022/09/21 09:44:04;;;;;;;5.07;2.85;;;13.30;99.90;;;;;;5060309;28;20055;-89
2022/09/21 09:46:43;;;;;;;5.82;3.05;;;13.40;99.90;;;;;;5087474;28;20032;-87
2022/09/21 09:49:19;;;;;;;6.47;3.05;;;13.30;99.90;;;;;;5074925;28;20032;-87
2022/09/21 09:51:45;;;;;;;4.00;3.45;;;13.40;99.90;;;;;;5087869;28;20023;-88
2022/09/21 09:54:15;;;;;;;6.95;3.35;;;13.30;99.90;;;;;;5070158;28;20062;-87
2022/09/21 09:56:41;;;;;;;4.60;2.95;;;13.40;99.90;;;;;;5079130;28;20016;-88
2022/09/21 09:59:44;;;;;;;5.85;3.20;;;13.40;99.90;;;;;;5087736;28;20035;-88
2022/09/21 10:02:27;;;;;;;3.85;2.97;;;13.40;99.90;;;;;;5048910;28;20513;-88
2022/09/21 10:05:02;;;;;;;4.85;2.80;;;13.40;99.90;;;;;;5095889;28;20032;-87
2022/09/21 10:07:44;;;;;;;5.57;2.60;;;13.40;99.90;;;;;;5069453;28;20055;-88
2022/09/21 10:10:31;;;;;;;6.97;2.80;;;13.40;99.90;;;;;;5080631;28;20032;-88
2022/09/21 10:13:10;;;;;;;5.65;3.15;;;13.40;99.90;;;;;;5081665;28;20663;-88
2022/09/21 10:15:44;;;;;;;4.93;2.33;;;13.40;99.90;;;;;;5077200;28;20102;-88
2022/09/21 10:18:18;;;;;;;4.82;2.40;;;13.40;99.90;;;;;;5076469;28;20116;-89
2022/09/21 10:21:06;;;;;;;3.55;2.58;;;13.40;99.90;;;;;;5070239;28;20058;-88
2022/09/21 10:23:34;;;;;;;3.97;2.33;;;13.40;99.90;;;;;;5074315;28;20077;-88
2022/09/21 10:26:09;;;;;;;4.45;2.45;;;13.40;99.90;;;;;;5067580;28;20106;-87
2022/09/21 10:28:35;;;;;;;7.57;2.40;;;13.40;99.90;;;;;;5059707;28;20058;-89
2022/09/21 10:31:18;;;;;;;6.65;2.92;;;13.40;99.90;;;;;;5068945;28;20026;-88
2022/09/21 10:33:51;;;;;;;4.45;2.63;;;13.40;99.90;;;;;;5071777;28;20048;-88
2022/09/21 10:36:37;;;;;;;4.38;2.20;;;13.40;99.90;;;;;;5082528;28;20480;-87
2022/09/21 10:39:30;;;;;;;5.38;2.95;;;13.50;99.90;;;;;;5094310;28;20476;-88
2022/09/21 10:42:11;;;;;;;4.72;2.08;;;13.40;99.90;;;;;;5062104;28;20043;-88
2022/09/21 10:44:43;;;;;;;4.78;2.33;;;13.40;99.90;;;;;;5067134;28;20024;-87
2022/09/21 10:47:32;;;;;;;4.18;2.28;;;13.40;99.90;;;;;;5067570;28;20481;-89
2022/09/21 10:50:01;;;;;;;4.13;2.22;;;13.40;99.90;;;;;;5091647;28;20031;-87
2022/09/21 10:52:42;;;;;;;2.63;1.90;;;13.40;99.90;;;;;;5066570;28;20025;-88
2022/09/21 10:55:19;;;;;;;2.60;1.98;;;13.40;99.90;;;;;;5071493;28;20043;-88
2022/09/21 10:57:45;;;;;;;3.03;1.88;;;13.40;99.90;;;;;;5067611;28;20111;-89
2022/09/21 11:00:36;;;;;;;3.08;1.98;;;13.40;99.90;;;;;;5065131;28;20028;-88
2022/09/21 11:03:27;;;;;;;6.15;2.10;;;13.40;99.90;;;;;;5067256;28;20493;-88
2022/09/21 11:05:54;;;;;;;3.22;1.73;;;13.40;99.90;;;;;;5086331;28;20024;-88
2022/09/21 11:08:32;;;;;;;3.35;2.13;;;13.50;99.90;;;;;;5066794;28;20031;-88
2022/09/21 11:11:36;;;;;;;5.20;1.70;;;13.50;99.90;;;;;;5064139;28;20024;-88
2022/09/21 11:14:16;;;;;;;2.78;1.95;;;13.40;99.90;;;;;;5030576;28;20025;-89
2022/09/21 11:17:21;;;;;;;3.28;2.33;;;13.40;99.90;;;;;;5012803;28;20436;-89
2022/09/21 11:19:56;;;;;;;4.57;2.05;;;13.50;99.90;;;;;;5072033;28;20579;-88
2022/09/21 11:22:33;;;;;;;3.25;1.58;;;13.50;99.90;;;;;;5089212;28;20054;-89
2022/09/21 11:25:24;;;;;;;2.83;1.70;;;13.50;99.90;;;;;;5070837;28;20024;-90
2022/09/21 11:28:25;;;;;;;5.32;1.70;;;13.50;99.90;;;;;;5071213;28;20023;-88
2022/09/21 11:31:09;;;;;;;5.63;2.08;;;13.50;99.90;;;;;;5041563;28;20036;-89
2022/09/21 11:33:48;;;;;;;4.60;1.98;;;13.50;99.90;;;;;;5105741;28;20027;-88
2022/09/21 11:36:45;;;;;;;3.13;1.48;;;13.50;99.90;;;;;;5069482;28;20057;-88
2022/09/21 11:39:20;;;;;;;3.63;2.03;;;13.50;99.90;;;;;;5073058;28;20024;-87
2022/09/21 11:42:07;;;;;;;3.30;1.55;;;13.50;99.90;;;;;;5075759;28;20044;-89
2022/09/21 11:44:32;;;;;;;3.22;1.85;;;13.50;99.90;;;;;;5070473;28;20102;-89
2022/09/21 11:47:01;;;;;;;2.95;1.80;;;13.50;99.90;;;;;;5086681;28;20020;-89
2022/09/21 11:49:53;;;;;;;3.17;1.35;;;13.50;99.90;;;;;;5074976;28;20028;-89
2022/09/21 11:52:53;;;;;;;4.38;1.52;;;13.50;99.90;;;;;;5068561;28;20028;-88
2022/09/21 11:55:38;;;;;;;6.07;1.83;;;13.50;99.90;;;;;;5084900;28;20028;-88
2022/09/21 11:58:30;;;;;;;3.28;1.92;;;13.50;99.90;;;;;;5084626;28;20026;-89
2022/09/21 12:01:35;;;;;;;4.22;1.75;;;13.50;99.90;;;;;;5068551;28;20044;-88
2022/09/21 12:04:24;;;;;;;3.00;1.60;;;13.50;99.90;;;;;;5089270;28;20017;-88
2022/09/21 12:07:08;;;;;;;2.67;1.77;;;13.50;99.90;;;;;;5076021;28;20012;-89
2022/09/21 12:09:53;;;;;;;4.30;1.60;;;13.50;99.90;;;;;;5092959;28;20514;-89
2022/09/21 12:12:35;;;;;;;2.17;1.30;;;13.50;99.90;;;;;;5078175;28;20505;-90
2022/09/21 12:15:16;;;;;;;4.65;1.45;;;13.50;99.90;;;;;;5075337;28;20054;-89
2022/09/21 12:17:55;;;;;;;2.03;1.35;;;13.50;99.90;;;;;;5092253;28;20020;-89
2022/09/21 12:20:45;;;;;;;3.85;1.70;;;13.50;99.90;;;;;;5079616;28;20024;-89
2022/09/21 12:23:30;;;;;;;3.45;1.80;;;13.60;99.90;;;;;;5097810;28;20107;-89
2022/09/21 12:25:58;;;;;;;2.88;1.42;;;13.60;99.90;;;;;;5066197;28;20066;-89
2022/09/21 12:28:38;;;;;;;2.50;1.40;;;13.60;99.90;;;;;;5078076;28;20680;-88
2022/09/21 12:31:17;;;;;;;3.38;1.98;;;13.60;99.90;;;;;;5085740;28;20052;-89
2022/09/21 12:34:04;;;;;;;1.92;1.73;;;13.60;99.90;;;;;;5079459;28;20016;-89
2022/09/21 12:36:41;;;;;;;6.22;3.03;;;13.60;99.90;;;;;;5051534;28;20071;-86
2022/09/21 12:39:28;;;;;;;4.72;2.00;;;13.60;99.90;;;;;;5076693;28;20060;-86
2022/09/21 12:42:00;;;;;;;4.72;1.70;;;13.70;99.90;;;;;;5065949;28;20081;-86
2022/09/21 12:45:02;;;;;;;4.20;1.67;;;13.90;99.90;;;;;;5070781;28;20028;-87
2022/09/21 12:47:49;;;;;;;8.98;1.73;;;14.00;99.90;;;;;;5076539;28;20443;-86
2022/09/21 12:51:04;;;;;;;2.83;1.65;;;14.10;99.90;;;;;;5081173;28;20021;-86
2022/09/21 12:53:31;;;;;;;;;;;14.20;99.90;;;;;;5045029;28;20036;-87
2022/09/21 12:56:23;;;;;;;3.03;1.38;;;14.20;99.90;;;;;;5074837;28;19904;-86
2022/09/21 12:59:10;;;;;;;2.53;1.45;;;14.20;99.90;;;;;;5095981;28;20027;-86
2022/09/21 13:01:48;;;;;;;3.65;1.40;;;14.30;99.90;;;;;;5076604;28;20024;-85
2022/09/21 13:04:37;;;;;;;2.88;1.20;;;14.30;99.90;;;;;;5061891;28;20093;-86
2022/09/21 13:07:09;;;;;;;4.55;1.23;;;14.20;99.90;;;;;;5072965;28;20158;-87
2022/09/21 13:09:40;;;;;;;1.75;1.23;;;14.20;99.90;;;;;;5073548;28;20105;-86
2022/09/21 13:12:12;;;;;;;1.77;1.10;;;14.20;99.90;;;;;;5083811;28;20039;-86
2022/09/21 13:14:44;;;;;;;2.85;1.30;;;14.20;99.90;;;;;;5080390;28;20104;-86
2022/09/21 13:17:23;;;;;;;1.50;1.10;;;14.20;99.90;;;;;;5095558;28;20024;-86
2022/09/21 13:20:01;;;;;;;3.45;1.67;;;14.10;99.90;;;;;;5067004;28;20089;-86
2022/09/21 13:22:32;;;;;;;1.92;1.30;;;14.10;99.90;;;;;;5069127;28;20028;-87
2022/09/21 13:25:12;;;;;;;3.65;1.20;;;14.10;99.90;;;;;;5076974;28;20492;-86
2022/09/21 13:27:59;;;;;;;1.35;0.90;;;14.20;99.90;;;;;;5075193;28;20572;-86
2022/09/21 13:30:41;;;;;;;2.58;1.38;;;14.10;99.90;;;;;;5066906;28;20051;-86
2022/09/21 13:33:18;;;;;;;2.47;1.35;;;14.10;99.90;;;;;;5055908;28;20087;-87
2022/09/21 13:35:50;;;;;;;1.73;1.20;;;14.10;99.90;;;;;;5055925;28;20067;-86
2022/09/21 13:38:36;;;;;;;1.00;0.82;;;14.10;99.90;;;;;;5056995;28;20021;-87
2022/09/21 13:41:16;;;;;;;4.28;1.40;;;14.10;99.90;;;;;;5085786;28;20020;-85
2022/09/21 13:43:45;;;;;;;4.03;1.20;;;14.10;99.90;;;;;;5072379;28;20123;-86
2022/09/21 13:46:34;;;;;;;2.33;0.90;;;14.10;99.90;;;;;;5070865;28;20063;-87
2022/09/21 13:49:12;;;;;;;2.22;1.58;;;14.00;99.90;;;;;;5055531;28;20131;-87
2022/09/21 13:51:53;;;;;;;2.83;1.45;;;14.10;99.90;;;;;;5065402;28;20027;-86
2022/09/21 13:54:24;;;;;;;3.78;1.05;;;14.10;99.90;;;;;;5076051;28;20024;-86
2022/09/21 13:57:17;;;;;;;6.57;1.27;;;14.00;99.90;;;;;;5088359;28;20056;-86
2022/09/21 13:59:45;;;;;;;2.70;1.67;;;14.00;99.90;;;;;;5068697;28;20115;-86
2022/09/21 14:02:31;;;;;;;4.03;1.65;;;14.00;99.50;;;;;;5072662;28;20279;-87
2022/09/21 14:05:03;;;;;;;2.13;1.10;;;14.00;99.90;;;;;;5066865;28;20106;-87
2022/09/21 14:07:31;;;;;;;3.85;1.00;;;13.90;99.90;;;;;;5077534;28;20029;-87
2022/09/21 14:10:04;;;;;;;2.28;1.20;;;13.90;99.90;;;;;;5088979;28;20456;-87
2022/09/21 14:15:35;;;;;;;1.95;0.85;;;14.10;99.90;;;;;;5084429;28;20055;-85
2022/09/21 14:18:15;;;;;;;3.45;1.40;;;14.10;99.90;;;;;;5068524;28;20393;-84
2022/09/21 14:21:09;;;;;;;2.03;1.23;;;14.20;99.90;;;;;;5048991;28;20027;-85